Time;durP1;ratioP1;P1;durP2;ratioP2;P2;SDS_P1;SDS_P2;PMS_P1;PMS_P2;Temp;Humidity;BMP_temperature;BMP_pressure;BME280_temperature;BME280_humidity;BME280_pressure;Samples;Min_cycle;Max_cycle;Signal;HPM_P1;HPM_P2
2022/07/19 00:01:34;;;;;;;9.57;4.20;;;15.80;58.60;;;;;;5069771;28;20401;-63
2022/07/19 00:03:59;;;;;;;7.15;4.10;;;15.90;58.60;;;;;;5049214;28;20061;-62
2022/07/19 00:06:25;;;;;;;4.70;3.20;;;15.80;59.30;;;;;;5069649;28;20034;-63
2022/07/19 00:08:50;;;;;;;5.93;3.47;;;15.80;60.70;;;;;;5049228;28;20028;-63
2022/07/19 00:11:16;;;;;;;3.72;3.25;;;15.70;60.50;;;;;;5068100;28;20377;-62
2022/07/19 00:13:42;;;;;;;6.10;3.38;;;15.70;60.20;;;;;;5051974;28;20105;-62
2022/07/19 00:16:07;;;;;;;5.53;3.45;;;15.60;60.40;;;;;;5070425;28;20435;-61
2022/07/19 00:18:33;;;;;;;4.47;3.30;;;15.60;60.50;;;;;;5059215;28;20040;-62
2022/07/19 00:20:58;;;;;;;8.20;3.75;;;15.60;61.20;;;;;;5050841;28;20115;-62
2022/07/19 00:23:24;;;;;;;5.72;3.53;;;15.60;62.30;;;;;;5067720;28;20524;-62
2022/07/19 00:25:49;;;;;;;5.68;3.60;;;15.50;62.70;;;;;;5050514;28;20044;-62
2022/07/19 00:28:15;;;;;;;4.97;3.38;;;15.50;63.60;;;;;;5067324;28;20051;-62
2022/07/19 00:30:40;;;;;;;5.10;3.45;;;15.40;64.30;;;;;;5050269;28;20053;-62
2022/07/19 00:33:08;;;;;;;7.53;3.80;;;15.40;63.90;;;;;;5067329;28;20028;-62
2022/07/19 00:35:35;;;;;;;5.93;3.33;;;15.40;65.10;;;;;;5070146;28;20016;-62
2022/07/19 00:38:07;;;;;;;4.57;3.38;;;15.40;65.30;;;;;;5053868;28;20698;-63
2022/07/19 00:40:33;;;;;;;4.97;3.03;;;15.30;64.30;;;;;;5069756;28;20056;-63
2022/07/19 00:42:58;;;;;;;6.35;3.75;;;15.30;64.90;;;;;;5052866;28;20571;-62
2022/07/19 00:45:24;;;;;;;4.72;3.55;;;15.30;65.50;;;;;;5068902;28;20492;-62
2022/07/19 00:47:50;;;;;;;5.65;2.90;;;15.20;67.70;;;;;;5051649;28;20056;-63
2022/07/19 00:50:16;;;;;;;5.68;3.47;;;15.20;68.20;;;;;;5068216;28;20423;-62
2022/07/19 00:52:45;;;;;;;5.93;3.85;;;15.20;69.20;;;;;;5050459;28;20111;-62
2022/07/19 00:55:11;;;;;;;7.00;3.58;;;15.10;70.50;;;;;;5069531;28;20059;-62
2022/07/19 00:57:38;;;;;;;4.68;3.13;;;15.10;69.50;;;;;;5049600;28;20060;-62
2022/07/19 01:00:05;;;;;;;6.93;3.60;;;15.10;69.50;;;;;;5069342;28;20032;-62
2022/07/19 01:02:32;;;;;;;4.18;3.10;;;15.00;69.80;;;;;;5048288;28;20021;-62
2022/07/19 01:04:57;;;;;;;5.60;3.30;;;15.00;69.60;;;;;;5069320;28;20294;-62
2022/07/19 01:07:23;;;;;;;6.30;3.08;;;15.00;70.60;;;;;;5049703;28;20029;-62
2022/07/19 02:47:23;;;;;;;3.72;2.88;;;13.90;82.20;;;;;;5045985;28;20136;-50
2022/07/19 02:49:49;;;;;;;5.53;3.35;;;13.80;82.30;;;;;;5046113;28;20130;-48
2022/07/19 02:52:14;;;;;;;5.03;3.55;;;13.90;84.60;;;;;;5067266;28;20052;-49
2022/07/19 02:54:40;;;;;;;6.55;3.40;;;13.80;84.40;;;;;;5046454;28;20500;-50
2022/07/19 02:57:05;;;;;;;4.05;3.17;;;13.80;83.00;;;;;;5066970;28;20083;-49
2022/07/19 02:59:31;;;;;;;7.35;3.80;;;13.80;84.30;;;;;;5046215;28;20083;-48
2022/07/19 03:01:56;;;;;;;5.82;3.58;;;13.80;84.40;;;;;;5066979;28;20017;-47
2022/07/19 03:04:22;;;;;;;7.88;3.88;;;13.70;86.30;;;;;;5046154;28;20047;-47
2022/07/19 03:06:47;;;;;;;6.72;3.42;;;13.70;85.30;;;;;;5067327;28;20029;-48
2022/07/19 03:09:13;;;;;;;5.28;3.40;;;13.70;86.80;;;;;;5050275;28;20404;-47
2022/07/19 03:11:39;;;;;;;6.60;3.95;;;13.70;90.00;;;;;;5070833;28;20028;-52
2022/07/19 03:14:04;;;;;;;6.53;3.60;;;13.70;88.90;;;;;;5056626;28;20032;-48
2022/07/19 03:16:30;;;;;;;5.38;3.13;;;13.70;90.20;;;;;;5051855;28;20037;-49
2022/07/19 03:18:55;;;;;;;5.22;4.28;;;13.60;89.00;;;;;;5068601;28;20107;-48
2022/07/19 03:21:21;;;;;;;5.20;4.10;;;13.70;90.00;;;;;;5051802;28;20488;-46
2022/07/19 03:23:46;;;;;;;4.40;3.17;;;13.70;90.90;;;;;;5068674;28;20028;-47
2022/07/19 03:26:12;;;;;;;5.10;3.38;;;13.70;89.30;;;;;;5070942;28;20044;-49
2022/07/19 03:28:37;;;;;;;6.88;4.00;;;13.70;87.50;;;;;;5055514;28;20107;-50
2022/07/19 03:31:03;;;;;;;7.55;3.50;;;13.70;87.20;;;;;;5071053;28;20020;-50
2022/07/19 03:33:29;;;;;;;6.70;3.75;;;13.80;87.40;;;;;;5053963;28;20017;-50
2022/07/19 03:35:54;;;;;;;5.60;3.83;;;13.80;90.00;;;;;;5071039;28;20385;-51
2022/07/19 03:38:20;;;;;;;6.53;4.07;;;13.80;90.10;;;;;;5052606;28;20028;-51
2022/07/19 03:40:47;;;;;;;6.80;4.07;;;13.90;90.00;;;;;;5070915;28;20020;-51
2022/07/19 03:43:14;;;;;;;5.25;3.70;;;13.90;89.20;;;;;;5051082;28;20029;-51
2022/07/19 03:45:39;;;;;;;6.50;3.88;;;14.00;88.50;;;;;;5070725;28;20507;-49
2022/07/19 03:48:05;;;;;;;6.82;3.30;;;14.00;87.60;;;;;;5059277;28;20040;-51
2022/07/19 03:50:30;;;;;;;5.78;3.58;;;14.10;88.10;;;;;;5070683;28;20095;-48
2022/07/19 03:52:56;;;;;;;6.28;3.97;;;14.10;88.30;;;;;;5051310;28;20114;-51
2022/07/19 03:55:21;;;;;;;6.60;3.90;;;14.20;86.90;;;;;;5068191;28;20039;-49
2022/07/19 03:57:47;;;;;;;4.63;3.80;;;14.30;86.90;;;;;;5051133;28;20091;-51
2022/07/19 04:00:13;;;;;;;5.93;3.70;;;14.80;84.30;;;;;;5050068;28;20071;-49
2022/07/19 04:02:38;;;;;;;8.80;3.67;;;15.50;81.00;;;;;;5069780;28;20035;-49
2022/07/19 04:05:04;;;;;;;6.43;3.65;;;16.10;76.70;;;;;;5049005;28;20087;-50
2022/07/19 04:07:30;;;;;;;5.40;3.55;;;16.80;73.00;;;;;;5069857;28;20071;-50
2022/07/19 04:09:55;;;;;;;4.95;3.45;;;17.50;69.20;;;;;;5049154;28;20033;-47
2022/07/19 04:12:21;;;;;;;4.78;3.72;;;18.00;64.50;;;;;;5069617;28;20028;-48
2022/07/19 04:14:46;;;;;;;4.07;3.38;;;18.50;60.70;;;;;;5042909;28;20033;-50
2022/07/19 04:17:11;;;;;;;4.28;3.38;;;19.00;59.70;;;;;;5069482;28;20544;-48
2022/07/19 04:19:37;;;;;;;5.93;3.80;;;19.60;57.50;;;;;;5048650;28;20029;-49
2022/07/19 04:22:03;;;;;;;5.85;3.28;;;20.10;56.00;;;;;;5069416;28;20060;-50
2022/07/19 04:24:28;;;;;;;5.18;2.97;;;20.70;53.70;;;;;;5048650;28;20029;-53
2022/07/19 04:26:54;;;;;;;5.38;3.80;;;21.20;50.70;;;;;;5069363;28;20159;-50
2022/07/19 04:29:19;;;;;;;4.32;3.30;;;21.70;48.30;;;;;;5058470;28;20444;-50
2022/07/19 04:31:45;;;;;;;6.97;3.60;;;22.20;47.10;;;;;;5050414;28;20033;-47
2022/07/19 04:34:10;;;;;;;5.40;3.42;;;22.70;43.90;;;;;;5067664;28;20024;-48
2022/07/19 04:36:36;;;;;;;6.00;3.90;;;23.10;41.90;;;;;;5050170;28;20104;-50
2022/07/19 04:39:01;;;;;;;6.38;4.43;;;23.60;40.50;;;;;;5067150;28;20032;-52
2022/07/19 04:41:27;;;;;;;7.63;3.67;;;24.10;38.50;;;;;;5069627;28;20231;-49
2022/07/19 04:43:53;;;;;;;3.88;3.45;;;24.60;36.60;;;;;;5054067;28;20040;-52
2022/07/19 04:46:18;;;;;;;4.93;3.85;;;25.00;33.80;;;;;;5069865;28;20089;-47
2022/07/19 04:48:44;;;;;;;4.85;3.85;;;25.40;31.70;;;;;;5052585;28;20048;-51
2022/07/19 04:51:09;;;;;;;4.47;3.47;;;25.70;29.10;;;;;;5069522;28;20020;-48
2022/07/19 04:53:35;;;;;;;7.63;3.45;;;26.10;28.70;;;;;;5051238;28;20500;-46
2022/07/19 04:56:01;;;;;;;3.83;3.13;;;26.60;27.70;;;;;;5069468;28;20035;-52
2022/07/19 04:58:26;;;;;;;4.35;3.80;;;26.90;25.90;;;;;;5049702;28;20040;-53
2022/07/19 05:00:52;;;;;;;4.88;3.30;;;27.30;25.20;;;;;;5069491;28;20024;-49
2022/07/19 05:03:17;;;;;;;3.17;2.85;;;27.70;23.80;;;;;;5047015;28;20032;-48
2022/07/19 05:05:43;;;;;;;5.32;3.35;;;28.20;22.80;;;;;;5069230;28;20175;-51
2022/07/19 05:08:08;;;;;;;5.65;2.90;;;28.70;22.00;;;;;;5049788;28;20032;-50
2022/07/19 05:10:35;;;;;;;5.05;3.25;;;29.20;20.00;;;;;;5047506;28;20501;-52
2022/07/19 05:13:00;;;;;;;3.15;2.85;;;29.70;18.80;;;;;;5067803;28;20088;-51
2022/07/19 05:15:26;;;;;;;4.85;3.25;;;30.10;17.20;;;;;;5044262;28;20471;-46
2022/07/19 05:17:51;;;;;;;4.82;3.30;;;30.40;16.00;;;;;;5068313;28;20075;-52
2022/07/19 05:20:17;;;;;;;4.10;3.28;;;30.80;14.90;;;;;;5047799;28;20468;-53
2022/07/19 05:22:43;;;;;;;3.72;2.88;;;31.30;13.60;;;;;;5068167;28;20036;-52
2022/07/19 05:25:09;;;;;;;4.80;3.20;;;31.70;12.40;;;;;;5047338;28;20397;-50
2022/07/19 05:27:36;;;;;;;8.95;3.80;;;32.10;11.30;;;;;;5068176;28;20152;-48
2022/07/19 05:30:03;;;;;;;5.78;2.97;;;32.60;10.00;;;;;;5046755;28;20368;-53
2022/07/19 05:32:28;;;;;;;3.65;2.90;;;33.00;8.80;;;;;;5068045;28;20127;-54
2022/07/19 05:34:54;;;;;;;4.30;2.85;;;33.40;7.00;;;;;;5047522;28;20111;-50
2022/07/19 05:37:19;;;;;;;4.70;2.53;;;33.80;5.60;;;;;;5067776;28;20039;-50
2022/07/19 05:39:45;;;;;;;6.97;2.75;;;34.30;4.60;;;;;;5047404;28;20044;-53
2022/07/19 05:42:10;;;;;;;3.83;2.58;;;34.70;3.80;;;;;;5067723;28;20123;-52
2022/07/19 05:44:35;;;;;;;3.38;2.97;;;35.20;2.70;;;;;;5057037;28;20044;-53
2022/07/19 05:47:01;;;;;;;3.03;2.70;;;35.50;1.10;;;;;;5050203;28;20496;-54
2022/07/19 05:49:27;;;;;;;3.78;2.72;;;35.90;1.00;;;;;;5066609;28;20528;-54
2022/07/19 05:51:52;;;;;;;3.05;2.67;;;36.30;1.00;;;;;;5048962;28;20040;-55
2022/07/19 05:54:18;;;;;;;3.72;2.10;;;37.00;1.00;;;;;;5065935;28;20029;-53
2022/07/19 05:56:44;;;;;;;3.28;2.13;;;37.50;1.00;;;;;;5068473;28;20117;-55
2022/07/19 05:59:09;;;;;;;3.10;2.58;;;37.70;1.00;;;;;;5052934;28;20210;-54
2022/07/19 06:01:35;;;;;;;3.03;2.15;;;38.10;1.00;;;;;;5068489;28;20028;-55
2022/07/19 06:04:00;;;;;;;4.07;2.38;;;38.50;1.00;;;;;;5051567;28;20437;-55
2022/07/19 06:06:31;;;;;;;2.53;2.10;;;38.90;1.00;;;;;;5068273;28;20047;-55
2022/07/19 06:08:57;;;;;;;3.20;2.05;;;39.30;1.00;;;;;;5034236;28;20070;-55
2022/07/19 06:11:23;;;;;;;2.95;2.05;;;39.70;1.00;;;;;;5068287;28;20032;-55
2022/07/19 06:13:49;;;;;;;4.93;2.40;;;40.00;1.00;;;;;;5045124;28;20477;-52
2022/07/19 06:16:16;;;;;;;3.55;2.28;;;40.50;1.00;;;;;;5048148;28;20032;-54
2022/07/19 06:18:42;;;;;;;7.18;2.33;;;40.80;1.00;;;;;;5065685;28;20427;-52
2022/07/19 06:21:10;;;;;;;4.10;2.58;;;41.00;1.00;;;;;;5068162;28;20035;-50
2022/07/19 06:23:36;;;;;;;6.20;2.65;;;41.60;1.00;;;;;;5046861;28;20055;-53
2022/07/19 06:26:02;;;;;;;2.40;2.20;;;42.00;1.00;;;;;;5068174;28;20025;-54
2022/07/19 06:28:28;;;;;;;3.65;2.13;;;42.20;1.00;;;;;;5048219;28;20040;-54
2022/07/19 06:30:53;;;;;;;4.35;1.83;;;42.20;1.00;;;;;;5066047;28;20447;-54
2022/07/19 06:33:20;;;;;;;3.83;1.95;;;42.40;1.00;;;;;;5048369;28;20490;-49
2022/07/19 06:35:46;;;;;;;1.85;1.50;;;42.70;1.00;;;;;;5047285;28;20029;-54
2022/07/19 06:38:12;;;;;;;4.35;2.35;;;43.00;1.00;;;;;;5067141;28;20028;-50
2022/07/19 06:40:37;;;;;;;2.33;1.70;;;43.30;1.00;;;;;;5046398;28;20064;-52
2022/07/19 06:43:03;;;;;;;2.53;1.60;;;43.70;1.00;;;;;;5069769;28;20253;-49
2022/07/19 06:45:28;;;;;;;1.77;1.67;;;43.90;1.00;;;;;;5050678;28;20056;-48
2022/07/19 06:47:54;;;;;;;2.20;1.70;;;44.20;1.00;;;;;;5062117;28;20053;-50
2022/07/19 06:50:20;;;;;;;3.63;1.85;;;44.50;1.00;;;;;;5055120;28;20100;-54
2022/07/19 06:52:46;;;;;;;2.70;1.83;;;44.70;1.00;;;;;;5071210;28;20082;-52
2022/07/19 06:55:11;;;;;;;3.00;1.77;;;44.90;1.00;;;;;;5050459;28;20037;-51
2022/07/19 06:57:38;;;;;;;2.38;2.03;;;45.20;1.00;;;;;;5071159;28;20500;-52
2022/07/19 07:00:06;;;;;;;4.53;1.92;;;45.50;1.00;;;;;;5050251;28;20129;-50
2022/07/19 07:02:31;;;;;;;2.33;2.10;;;45.70;1.00;;;;;;5071171;28;20241;-51
2022/07/19 07:04:57;;;;;;;2.95;1.83;;;45.80;1.00;;;;;;5061094;28;20366;-51
2022/07/19 07:07:22;;;;;;;3.60;2.15;;;46.00;1.00;;;;;;5052096;28;20089;-47
2022/07/19 07:09:48;;;;;;;2.20;1.95;;;46.00;1.00;;;;;;5068914;28;20024;-51
2022/07/19 07:12:13;;;;;;;3.92;2.00;;;45.90;1.00;;;;;;5051969;28;20082;-52
2022/07/19 07:14:39;;;;;;;2.10;1.85;;;46.00;1.00;;;;;;5062729;28;20404;-54
2022/07/19 07:17:04;;;;;;;6.85;2.00;;;46.10;1.00;;;;;;5051852;28;20118;-52
2022/07/19 07:19:30;;;;;;;2.40;2.00;;;46.20;1.00;;;;;;5068743;28;20032;-49
2022/07/19 07:21:59;;;;;;;5.25;2.10;;;45.60;1.00;;;;;;5071363;28;20070;-51
2022/07/19 07:24:25;;;;;;;2.47;2.05;;;45.80;1.00;;;;;;5055340;28;20380;-49
2022/07/19 07:26:50;;;;;;;2.20;1.50;;;46.00;1.00;;;;;;5071179;28;20036;-49
2022/07/19 07:29:16;;;;;;;4.20;1.67;;;46.30;1.00;;;;;;5054075;28;20423;-53
2022/07/19 07:31:41;;;;;;;2.17;1.60;;;46.50;1.00;;;;;;5071186;28;20104;-53
2022/07/19 07:34:07;;;;;;;3.22;2.10;;;46.70;1.00;;;;;;5052725;28;20038;-49
2022/07/19 07:36:33;;;;;;;2.75;1.70;;;46.80;1.00;;;;;;5071030;28;20025;-55
2022/07/19 07:38:58;;;;;;;2.95;1.48;;;47.00;1.00;;;;;;5051515;28;20025;-49
2022/07/19 07:41:24;;;;;;;2.33;1.70;;;47.20;1.00;;;;;;5070785;28;20384;-52
2022/07/19 07:43:49;;;;;;;2.80;1.50;;;47.20;1.00;;;;;;5049768;28;20041;-54
2022/07/19 07:46:14;;;;;;;2.65;1.75;;;47.20;1.00;;;;;;5070841;28;20412;-54
2022/07/19 07:48:40;;;;;;;3.42;1.95;;;47.20;1.00;;;;;;5051194;28;20034;-53
2022/07/19 07:51:05;;;;;;;2.70;1.60;;;46.90;1.00;;;;;;5049340;28;20040;-48
2022/07/19 07:53:31;;;;;;;1.75;1.60;;;46.90;1.00;;;;;;5068073;28;20028;-51
2022/07/19 07:55:56;;;;;;;2.00;1.83;;;47.00;1.00;;;;;;5049363;28;20497;-50
2022/07/19 07:58:22;;;;;;;3.08;1.65;;;47.30;1.00;;;;;;5069843;28;20041;-52
2022/07/19 08:00:47;;;;;;;4.32;1.90;;;47.50;1.00;;;;;;5049476;28;20033;-53
2022/07/19 08:03:13;;;;;;;2.33;1.60;;;47.50;1.00;;;;;;5069763;28;20025;-54
2022/07/19 08:05:39;;;;;;;1.95;1.80;;;47.30;1.00;;;;;;5049299;28;20025;-55
2022/07/19 08:08:05;;;;;;;2.00;1.80;;;46.60;1.00;;;;;;5069653;28;20058;-54
2022/07/19 08:10:33;;;;;;;2.10;1.65;;;46.50;1.00;;;;;;5049290;28;20065;-55
2022/07/19 08:12:58;;;;;;;4.43;1.65;;;46.60;1.00;;;;;;5069238;28;20159;-52
2022/07/19 08:15:24;;;;;;;2.17;1.45;;;46.80;1.00;;;;;;5042614;28;20127;-52
2022/07/19 08:17:49;;;;;;;2.85;1.63;;;47.00;1.00;;;;;;5069619;28;20129;-50
2022/07/19 08:20:15;;;;;;;1.85;1.50;;;46.70;1.00;;;;;;5048881;28;20039;-50
2022/07/19 08:22:41;;;;;;;1.45;1.30;;;46.40;1.00;;;;;;5069765;28;20035;-55
2022/07/19 08:25:07;;;;;;;4.72;1.42;;;46.10;1.00;;;;;;5058573;28;20373;-53
2022/07/19 08:27:33;;;;;;;2.92;1.45;;;46.10;1.00;;;;;;5050623;28;20485;-48
2022/07/19 08:29:59;;;;;;;1.65;1.52;;;45.70;1.00;;;;;;5067584;28;20069;-49
2022/07/19 08:32:25;;;;;;;1.75;1.58;;;44.80;1.00;;;;;;5050332;28;20036;-49
2022/07/19 08:34:51;;;;;;;3.35;1.67;;;44.40;1.00;;;;;;5067469;28;20463;-46
2022/07/19 08:37:16;;;;;;;3.72;1.63;;;43.80;1.00;;;;;;5069969;28;20099;-51
2022/07/19 08:39:42;;;;;;;2.35;1.40;;;43.90;1.00;;;;;;5054430;28;20419;-49
2022/07/19 08:42:09;;;;;;;1.58;1.23;;;44.10;1.00;;;;;;5069995;28;20028;-47
2022/07/19 08:44:38;;;;;;;1.90;1.30;;;44.00;1.00;;;;;;5053055;28;20476;-51
2022/07/19 08:47:05;;;;;;;2.78;1.80;;;44.00;1.00;;;;;;5067712;28;20040;-51
2022/07/19 08:49:30;;;;;;;5.25;1.60;;;43.60;1.00;;;;;;5051923;28;20199;-51
2022/07/19 08:51:57;;;;;;;4.40;2.05;;;43.40;1.00;;;;;;5069677;28;20161;-51
2022/07/19 08:54:23;;;;;;;4.15;1.65;;;43.00;1.00;;;;;;5050800;28;20515;-49
2022/07/19 08:59:32;;;;;;;;;;;41.30;1.00;;;;;;5036193;28;20031;-48
2022/07/19 09:01:58;;;;;;;2.00;1.70;;;41.00;1.00;;;;;;5069456;28;19904;-54
2022/07/19 09:04:25;;;;;;;2.10;1.48;;;40.60;1.00;;;;;;5050050;28;20632;-55
2022/07/19 09:06:55;;;;;;;1.85;1.40;;;40.40;1.00;;;;;;5069315;28;20020;-53
2022/07/19 09:09:26;;;;;;;3.67;1.30;;;40.50;1.00;;;;;;5049842;28;20111;-54
2022/07/19 09:11:53;;;;;;;3.28;1.67;;;40.70;1.00;;;;;;5069220;28;20047;-55
2022/07/19 09:14:22;;;;;;;3.30;1.45;;;40.70;1.00;;;;;;5055133;28;20135;-49
2022/07/19 09:17:16;;;;;;;2.50;1.38;;;40.70;1.00;;;;;;5069147;28;20020;-55
2022/07/19 09:19:44;;;;;;;1.90;1.40;;;40.80;1.00;;;;;;5036876;28;20085;-54
2022/07/19 09:22:12;;;;;;;1.80;1.40;;;40.90;1.00;;;;;;5068964;28;20259;-55
2022/07/19 09:24:41;;;;;;;1.52;1.13;;;41.00;1.00;;;;;;5051153;28;20063;-52
2022/07/19 09:27:09;;;;;;;2.28;1.70;;;41.10;1.00;;;;;;5068988;28;20021;-52
2022/07/19 09:29:38;;;;;;;3.53;1.40;;;41.10;1.00;;;;;;5050571;28;20047;-54
2022/07/19 09:32:12;;;;;;;4.28;1.83;;;41.00;1.00;;;;;;5069022;28;20074;-51
2022/07/19 09:34:48;;;;;;;4.00;2.00;;;41.10;1.00;;;;;;5050665;28;20035;-56
2022/07/19 09:37:28;;;;;;;2.53;1.00;;;41.00;1.00;;;;;;5068662;28;20074;-52
2022/07/19 09:39:59;;;;;;;2.45;1.75;;;40.90;1.00;;;;;;5038669;28;20060;-49
2022/07/19 09:42:34;;;;;;;1.50;1.40;;;40.80;1.00;;;;;;5068560;28;20029;-53
2022/07/19 09:45:05;;;;;;;4.35;1.52;;;40.80;1.00;;;;;;5040215;28;20074;-54
2022/07/19 09:47:39;;;;;;;1.40;1.20;;;40.80;1.00;;;;;;5062762;28;20081;-54
2022/07/19 09:50:14;;;;;;;;;;;40.80;1.00;;;;;;5054243;28;20040;-49
2022/07/19 09:52:40;;;;;;;1.95;1.30;;;40.70;1.00;;;;;;5048675;28;19908;-51
2022/07/19 09:55:07;;;;;;;1.63;1.52;;;40.50;1.00;;;;;;5065846;28;20039;-52
2022/07/19 09:57:39;;;;;;;2.13;1.40;;;40.50;1.00;;;;;;5068288;28;20090;-55
2022/07/19 10:00:07;;;;;;;1.92;1.30;;;40.30;1.00;;;;;;5053323;28;20392;-51
2022/07/19 10:02:35;;;;;;;5.38;1.58;;;40.20;1.00;;;;;;5068303;28;20439;-49
2022/07/19 10:05:05;;;;;;;1.70;1.35;;;39.90;1.00;;;;;;5052763;28;20055;-50
2022/07/19 10:07:32;;;;;;;3.15;1.70;;;39.50;1.00;;;;;;5066849;28;20029;-54
2022/07/19 10:10:02;;;;;;;1.58;1.48;;;39.30;1.00;;;;;;5052269;28;20420;-50
2022/07/19 10:12:28;;;;;;;2.55;1.67;;;39.20;1.00;;;;;;5068032;28;20028;-51
2022/07/19 10:14:55;;;;;;;3.33;1.50;;;39.10;1.00;;;;;;5045474;28;20047;-54
2022/07/19 10:17:38;;;;;;;1.58;1.48;;;38.90;1.00;;;;;;5067947;28;20028;-51
2022/07/19 10:20:07;;;;;;;1.73;1.50;;;38.80;1.00;;;;;;5038540;28;20016;-52
2022/07/19 10:22:33;;;;;;;2.10;1.63;;;38.60;1.00;;;;;;5068133;28;20212;-54
2022/07/19 10:24:59;;;;;;;2.03;1.80;;;38.20;1.00;;;;;;5051934;28;20496;-53
2022/07/19 10:27:25;;;;;;;1.45;1.35;;;38.00;1.00;;;;;;5068253;28;20024;-56
2022/07/19 10:29:56;;;;;;;1.60;1.30;;;37.60;1.00;;;;;;5050887;28;20032;-54
2022/07/19 10:32:30;;;;;;;2.15;1.67;;;37.50;1.00;;;;;;5068144;28;20032;-50
2022/07/19 10:35:26;;;;;;;2.00;1.37;;;37.10;1.00;;;;;;5035394;28;20101;-54
2022/07/19 10:38:00;;;;;;;2.05;1.80;;;36.80;1.00;;;;;;5068088;28;20021;-55
2022/07/19 10:40:45;;;;;;;2.22;1.45;;;36.60;1.00;;;;;;5055170;28;20028;-55
2022/07/19 10:43:15;;;;;;;2.38;1.70;;;36.40;1.00;;;;;;5048198;28;20083;-52
2022/07/19 10:45:42;;;;;;;2.55;1.42;;;36.20;1.00;;;;;;5065806;28;20468;-50
2022/07/19 10:48:11;;;;;;;3.67;1.38;;;36.10;1.00;;;;;;5058435;28;20244;-53
2022/07/19 10:50:54;;;;;;;2.10;1.42;;;36.00;1.00;;;;;;5055896;28;20056;-54
2022/07/19 10:53:41;;;;;;;2.50;1.50;;;35.80;1.00;;;;;;5047941;28;20520;-51
2022/07/19 10:56:19;;;;;;;2.80;1.67;;;35.70;1.00;;;;;;5051248;28;20041;-51
2022/07/19 10:58:49;;;;;;;2.47;1.20;;;35.50;1.00;;;;;;5067267;28;20025;-55
2022/07/19 11:01:19;;;;;;;2.13;1.48;;;35.20;1.00;;;;;;5046032;28;20040;-52
2022/07/19 11:03:50;;;;;;;3.45;1.50;;;35.20;1.00;;;;;;5067708;28;20021;-50
2022/07/19 11:06:28;;;;;;;3.20;1.83;;;34.90;1.00;;;;;;5046070;28;20297;-51
2022/07/19 11:08:58;;;;;;;3.80;1.52;;;34.60;1.00;;;;;;5027853;28;20030;-51
2022/07/19 11:11:25;;;;;;;1.80;1.40;;;34.60;1.00;;;;;;5049847;28;20021;-52
2022/07/19 11:13:59;;;;;;;3.53;1.70;;;34.40;1.00;;;;;;5053909;28;20035;-51
2022/07/19 11:16:25;;;;;;;2.15;1.60;;;34.30;1.00;;;;;;5041406;28;20045;-54
2022/07/19 11:18:51;;;;;;;2.78;1.30;;;34.30;1.00;;;;;;5066914;28;20067;-53
2022/07/19 11:21:17;;;;;;;11.55;1.83;;;34.40;1.00;;;;;;5046149;28;20064;-54
2022/07/19 11:23:44;;;;;;;1.83;1.58;;;34.40;1.00;;;;;;5066905;28;20035;-55
2022/07/19 11:26:15;;;;;;;4.22;1.85;;;34.50;1.00;;;;;;5046070;28;20052;-54
2022/07/19 11:28:42;;;;;;;3.45;1.60;;;34.50;1.00;;;;;;5068817;28;20028;-53
2022/07/19 11:31:23;;;;;;;2.22;1.73;;;34.40;1.00;;;;;;5049659;28;20104;-54
2022/07/19 11:33:53;;;;;;;4.95;1.67;;;34.40;1.00;;;;;;5031276;28;20025;-49
2022/07/19 11:36:19;;;;;;;1.88;1.75;;;34.40;1.00;;;;;;5043534;28;20090;-48
2022/07/19 11:38:49;;;;;;;2.60;1.80;;;34.40;1.00;;;;;;5070325;28;20081;-54
2022/07/19 11:41:17;;;;;;;2.22;1.63;;;34.40;1.00;;;;;;5048896;28;20459;-55
2022/07/19 11:43:42;;;;;;;2.30;1.77;;;34.40;1.00;;;;;;5070476;28;20029;-51
2022/07/19 11:46:08;;;;;;;3.40;1.50;;;34.40;1.00;;;;;;5049513;28;20025;-55
2022/07/19 11:48:34;;;;;;;3.90;1.70;;;34.40;1.00;;;;;;5069820;28;20088;-55
2022/07/19 11:51:08;;;;;;;3.45;1.80;;;34.40;1.00;;;;;;5049468;28;20068;-55
2022/07/19 11:53:35;;;;;;;2.70;1.83;;;34.40;1.00;;;;;;5030904;28;20053;-54
2022/07/19 11:56:02;;;;;;;2.72;1.63;;;34.40;1.00;;;;;;5056705;28;20029;-55
2022/07/19 11:58:28;;;;;;;2.67;1.80;;;34.20;1.00;;;;;;5069715;28;20044;-52
2022/07/19 12:01:04;;;;;;;1.65;1.42;;;34.20;1.00;;;;;;5059326;28;20056;-55
2022/07/19 12:03:29;;;;;;;2.47;1.85;;;34.20;1.00;;;;;;5030943;28;20033;-54
2022/07/19 12:06:04;;;;;;;2.92;1.80;;;34.10;1.00;;;;;;5067515;28;20546;-52
2022/07/19 12:08:43;;;;;;;3.10;1.83;;;34.10;1.00;;;;;;5030578;28;20026;-54
2022/07/19 12:11:21;;;;;;;5.40;1.80;;;34.00;1.00;;;;;;5055742;28;20029;-53
2022/07/19 12:13:47;;;;;;;4.25;2.10;;;33.70;1.00;;;;;;5056599;28;20028;-53
2022/07/19 12:16:13;;;;;;;4.20;2.17;;;33.60;1.00;;;;;;5060843;28;20416;-53
2022/07/19 12:18:43;;;;;;;4.38;1.90;;;33.50;1.00;;;;;;5050721;28;20025;-51
2022/07/19 12:21:23;;;;;;;4.78;2.03;;;33.30;1.00;;;;;;5055933;28;20036;-51
2022/07/19 12:24:08;;;;;;;4.43;2.40;;;33.20;1.00;;;;;;5069714;28;20032;-53
2022/07/19 12:26:34;;;;;;;3.70;2.20;;;33.10;1.00;;;;;;5048918;28;20051;-53
2022/07/19 12:28:59;;;;;;;4.43;2.22;;;33.00;1.00;;;;;;5069297;28;20119;-51
2022/07/19 12:31:25;;;;;;;5.93;2.10;;;33.10;1.00;;;;;;5048655;28;20031;-49
2022/07/19 12:34:03;;;;;;;3.15;2.00;;;33.20;1.00;;;;;;5069137;28;20086;-53
2022/07/19 12:36:36;;;;;;;4.95;2.20;;;33.20;1.00;;;;;;5048571;28;20526;-50
2022/07/19 12:39:03;;;;;;;2.80;1.98;;;33.30;1.00;;;;;;5069114;28;20028;-49
2022/07/19 12:41:29;;;;;;;4.10;2.22;;;33.30;1.00;;;;;;5048581;28;20104;-52
2022/07/19 12:43:55;;;;;;;3.28;2.10;;;33.30;1.00;;;;;;5069090;28;20107;-53
2022/07/19 12:46:20;;;;;;;4.72;2.10;;;33.30;1.00;;;;;;5048356;28;20116;-52
2022/07/19 12:48:46;;;;;;;4.55;1.90;;;33.40;1.00;;;;;;5068768;28;20516;-52
2022/07/19 12:51:11;;;;;;;5.38;2.20;;;33.50;1.00;;;;;;5048328;28;20481;-51
2022/07/19 12:53:37;;;;;;;3.75;1.85;;;33.50;1.00;;;;;;5068824;28;20393;-53
2022/07/19 12:56:02;;;;;;;4.22;2.05;;;33.60;1.00;;;;;;5058040;28;20094;-54
2022/07/19 13:01:12;;;;;;;2.88;2.13;;;33.60;1.00;;;;;;5049730;28;20225;-54
2022/07/19 13:03:41;;;;;;;3.28;1.92;;;33.60;1.00;;;;;;5049842;28;20205;-49
2022/07/19 13:06:06;;;;;;;2.63;2.42;;;33.60;1.00;;;;;;5067120;28;20033;-50
2022/07/19 13:08:32;;;;;;;4.43;2.25;;;33.60;1.00;;;;;;5049694;28;20040;-54
2022/07/19 13:11:01;;;;;;;5.25;2.63;;;33.60;1.00;;;;;;5066629;28;20021;-52
2022/07/19 13:13:26;;;;;;;5.03;2.40;;;33.60;1.00;;;;;;5049938;28;20048;-47
2022/07/19 13:15:52;;;;;;;3.28;2.63;;;33.60;1.00;;;;;;5067182;28;20496;-55
2022/07/19 13:18:18;;;;;;;3.83;2.50;;;33.60;1.00;;;;;;5049549;28;20508;-51
2022/07/19 13:20:44;;;;;;;4.07;2.60;;;33.40;1.00;;;;;;5066673;28;20039;-53
2022/07/19 13:23:10;;;;;;;3.83;2.33;;;33.40;1.00;;;;;;5068986;28;20025;-52
2022/07/19 13:25:36;;;;;;;3.00;2.15;;;33.40;1.00;;;;;;5052799;28;20020;-52
2022/07/19 13:28:02;;;;;;;5.72;2.30;;;33.50;1.00;;;;;;5069109;28;20036;-49
2022/07/19 13:30:28;;;;;;;3.92;2.42;;;33.50;1.00;;;;;;5051492;28;20048;-48
2022/07/19 13:32:54;;;;;;;7.68;2.35;;;33.40;1.00;;;;;;5068844;28;20012;-48
2022/07/19 13:35:20;;;;;;;3.95;2.50;;;33.40;1.00;;;;;;5050157;28;20036;-54
2022/07/19 13:37:45;;;;;;;2.88;2.20;;;33.40;1.00;;;;;;5068821;28;20025;-50
2022/07/19 13:40:13;;;;;;;2.83;2.20;;;33.30;1.00;;;;;;5048605;28;20424;-48
2022/07/19 13:42:40;;;;;;;5.15;2.78;;;33.30;1.00;;;;;;5068712;28;20020;-50
2022/07/19 13:45:06;;;;;;;2.55;2.35;;;33.30;1.00;;;;;;5047676;28;20032;-55
2022/07/19 13:47:33;;;;;;;2.92;2.70;;;33.40;1.00;;;;;;5062760;28;20424;-47
2022/07/19 13:49:58;;;;;;;3.40;2.42;;;33.40;1.00;;;;;;5048391;28;20039;-54
2022/07/19 13:52:24;;;;;;;5.55;2.60;;;33.40;1.00;;;;;;5065748;28;20111;-51
2022/07/19 13:54:49;;;;;;;4.65;2.60;;;33.40;1.00;;;;;;5048984;28;20065;-51
2022/07/19 13:57:15;;;;;;;5.15;2.75;;;33.40;1.00;;;;;;5047545;28;20489;-50
2022/07/19 13:59:40;;;;;;;5.22;2.65;;;33.50;1.00;;;;;;5067632;28;20024;-50
2022/07/19 14:02:06;;;;;;;3.40;2.30;;;33.40;1.00;;;;;;5047117;28;20032;-55
2022/07/19 14:04:32;;;;;;;3.08;2.67;;;33.40;1.00;;;;;;5067744;28;20404;-52
2022/07/19 14:06:58;;;;;;;2.42;2.22;;;33.40;1.00;;;;;;5047044;28;20035;-54
2022/07/19 14:09:24;;;;;;;2.78;1.95;;;33.50;1.00;;;;;;5067603;28;20024;-48
2022/07/19 14:11:49;;;;;;;5.28;2.47;;;33.50;1.00;;;;;;5046982;28;20075;-47
2022/07/19 14:14:15;;;;;;;3.05;2.00;;;33.40;1.00;;;;;;5053049;28;20198;-52
2022/07/19 14:16:41;;;;;;;2.72;2.22;;;33.40;1.00;;;;;;5052758;28;20036;-54
2022/07/19 14:19:06;;;;;;;2.80;2.38;;;33.40;1.00;;;;;;5067457;28;20033;-50
2022/07/19 14:21:34;;;;;;;4.57;2.22;;;33.30;1.00;;;;;;5046753;28;20162;-52
2022/07/19 14:24:00;;;;;;;6.00;2.58;;;33.20;1.00;;;;;;5067640;28;20507;-54
2022/07/19 14:26:25;;;;;;;2.50;1.90;;;33.30;1.00;;;;;;5057216;28;20032;-62
2022/07/19 14:28:51;;;;;;;5.78;2.35;;;33.30;1.00;;;;;;5048650;28;20029;-63
2022/07/19 14:31:16;;;;;;;4.13;2.25;;;33.30;1.00;;;;;;5065288;28;20028;-64
2022/07/19 14:33:42;;;;;;;5.80;2.33;;;33.20;1.00;;;;;;5048379;28;20508;-65
2022/07/19 14:36:08;;;;;;;3.65;2.55;;;33.10;1.00;;;;;;5065398;28;20063;-64
2022/07/19 14:38:34;;;;;;;3.63;2.20;;;33.20;1.00;;;;;;5048401;28;20072;-64